createdAt,value
2019-05-15T00:04:31.935Z,12.60
2019-05-15T00:09:55.889Z,12.50
2019-05-15T00:15:19.525Z,12.50
2019-05-15T00:20:43.289Z,12.00
2019-05-15T00:26:09.306Z,12.10
2019-05-15T00:31:32.254Z,12.00
2019-05-15T00:36:58.360Z,12.00
2019-05-15T00:42:21.295Z,12.20
2019-05-15T00:47:44.967Z,12.20
2019-05-15T00:53:08.903Z,12.10
2019-05-15T00:58:32.914Z,12.00
2019-05-15T01:03:58.625Z,12.00
2019-05-15T01:09:22.000Z,11.90
2019-05-15T01:14:45.907Z,11.80
2019-05-15T01:20:09.935Z,11.80
2019-05-15T01:25:33.031Z,11.70
2019-05-15T01:30:59.044Z,11.60
2019-05-15T01:36:21.963Z,11.40
2019-05-15T01:41:49.340Z,11.50
2019-05-15T01:47:10.665Z,11.40
2019-05-15T01:52:34.203Z,12.40
2019-05-15T01:57:58.145Z,11.20
2019-05-15T02:03:22.259Z,11.70
2019-05-15T02:08:45.900Z,11.70
2019-05-15T02:14:09.659Z,11.80
2019-05-15T02:19:33.653Z,11.90
2019-05-15T02:24:59.145Z,11.30
2019-05-15T02:30:28.852Z,10.80
2019-05-15T02:35:50.251Z,10.50
2019-05-15T02:41:13.236Z,10.10
2019-05-15T02:46:39.157Z,10.20
2019-05-15T02:52:01.967Z,10.40
2019-05-15T02:57:25.146Z,10.70
2019-05-15T03:02:49.860Z,10.50
2019-05-15T03:08:13.982Z,10.00
2019-05-15T03:13:39.133Z,9.70
2019-05-15T03:19:02.223Z,10.20
2019-05-15T03:24:28.656Z,10.20
2019-05-15T03:29:50.379Z,10.30
2019-05-15T03:35:15.750Z,10.10
2019-05-15T03:40:40.109Z,10.30
2019-05-15T03:46:03.591Z,10.00
2019-05-15T03:51:28.918Z,9.90
2019-05-15T03:56:51.620Z,10.00
2019-05-15T04:02:15.275Z,9.80
2019-05-15T04:07:39.756Z,9.70
2019-05-15T04:13:04.340Z,9.90
2019-05-15T04:18:29.126Z,9.80
2019-05-15T04:23:55.153Z,10.20
2019-05-15T04:29:19.656Z,10.20
2019-05-15T04:34:42.876Z,10.10
2019-05-15T04:40:09.249Z,10.40
2019-05-15T04:45:34.967Z,10.50
2019-05-15T04:50:58.788Z,10.70
2019-05-15T04:56:21.464Z,11.50
2019-05-15T05:01:45.610Z,11.70
2019-05-15T05:07:09.393Z,11.60
2019-05-15T05:12:33.191Z,11.70
2019-05-15T05:17:58.591Z,12.00
2019-05-15T05:23:21.844Z,12.40
2019-05-15T05:28:45.497Z,12.70
2019-05-15T05:34:09.204Z,13.20
2019-05-15T05:39:32.919Z,13.50
2019-05-15T05:44:58.140Z,13.70
2019-05-15T05:50:44.078Z,14.10
2019-05-15T05:56:05.867Z,14.40
2019-05-15T06:01:28.947Z,14.60
2019-05-15T06:07:06.239Z,14.80
2019-05-15T06:12:18.962Z,14.70
2019-05-15T06:17:42.318Z,15.00
2019-05-15T06:23:08.364Z,15.30
2019-05-15T06:28:31.185Z,15.70
2019-05-15T06:33:55.116Z,16.30
2019-05-15T06:39:18.061Z,16.70
2019-05-15T06:44:41.329Z,17.10
2019-05-15T06:50:05.189Z,17.60
2019-05-15T06:55:28.881Z,17.70
2019-05-15T07:00:52.620Z,18.10
2019-05-15T07:06:17.966Z,18.40
2019-05-15T07:11:40.789Z,19.00
2019-05-15T07:17:04.582Z,18.70
2019-05-15T07:22:28.886Z,18.70
2019-05-15T07:27:52.658Z,18.40
2019-05-15T07:33:20.259Z,18.60
2019-05-15T07:38:41.083Z,19.80
2019-05-15T07:44:05.071Z,19.60
2019-05-15T07:49:28.898Z,19.70
2019-05-15T07:54:52.628Z,19.50
2019-05-15T08:00:18.795Z,19.30
2019-05-15T08:05:55.175Z,20.00
2019-05-15T08:11:17.513Z,20.70
2019-05-15T08:16:31.081Z,20.50
2019-05-15T08:21:54.216Z,20.90
2019-05-15T08:27:19.114Z,20.60
2019-05-15T08:32:42.374Z,21.10
2019-05-15T08:38:05.867Z,21.10
2019-05-15T08:43:31.418Z,22.10
2019-05-15T08:48:55.471Z,21.60
2019-05-15T08:54:18.826Z,21.30
2019-05-15T08:59:42.006Z,21.30
2019-05-15T09:05:08.522Z,21.10
2019-05-15T09:10:31.163Z,21.30
2019-05-15T09:15:54.583Z,22.30
2019-05-15T09:21:19.166Z,22.60
2019-05-15T09:26:45.371Z,22.20
2019-05-15T09:32:12.439Z,21.90
2019-05-15T09:37:34.204Z,21.90
2019-05-15T09:42:57.890Z,22.80
2019-05-15T09:48:22.211Z,23.40
2019-05-15T09:53:48.353Z,24.00
2019-05-15T09:59:11.454Z,24.10
2019-05-15T10:04:34.800Z,24.20
2019-05-15T10:09:57.805Z,25.10
2019-05-15T10:15:21.819Z,25.40
2019-05-15T10:20:45.283Z,25.10
2019-05-15T10:26:13.817Z,24.90
2019-05-15T10:31:34.638Z,24.60
2019-05-15T10:36:59.018Z,23.80
2019-05-15T10:42:23.051Z,25.90
2019-05-15T10:47:49.373Z,27.00
2019-05-15T10:53:11.418Z,26.20
2019-05-15T10:58:34.590Z,25.70
2019-05-15T11:03:59.019Z,25.60
2019-05-15T11:09:22.667Z,26.20
2019-05-15T11:14:46.507Z,26.10
2019-05-15T11:20:10.457Z,27.30
2019-05-15T11:25:34.407Z,25.90
2019-05-15T11:30:59.449Z,26.20
2019-05-15T11:36:23.507Z,27.40
2019-05-15T11:41:49.226Z,26.40
2019-05-15T11:47:12.087Z,27.10
2019-05-15T11:52:37.370Z,26.40
2019-05-15T11:58:00.674Z,26.40
2019-05-15T12:03:25.043Z,26.60
2019-05-15T12:08:49.043Z,27.00
2019-05-15T12:14:12.502Z,27.70
2019-05-15T12:19:35.830Z,27.80
2019-05-15T12:25:00.458Z,27.60
2019-05-15T12:30:25.336Z,27.60
2019-05-15T13:02:54.428Z,27.00
2019-05-15T13:08:19.457Z,27.40
2019-05-15T13:13:43.085Z,28.00
2019-05-15T13:19:07.311Z,27.40
2019-05-15T13:24:30.627Z,26.40
2019-05-15T13:29:54.331Z,27.70
2019-05-15T13:35:18.345Z,27.10
2019-05-15T13:40:42.681Z,27.60
2019-05-15T13:46:08.858Z,27.70
2019-05-15T13:51:31.772Z,26.60
2019-05-15T13:56:55.543Z,26.90
2019-05-15T14:02:19.503Z,27.50
2019-05-15T14:07:49.733Z,27.50
2019-05-15T14:13:07.707Z,26.80
2019-05-15T14:18:31.495Z,27.60
2019-05-15T14:23:55.490Z,27.40
2019-05-15T14:29:19.071Z,26.80
2019-05-15T14:34:42.648Z,26.40
2019-05-15T14:40:08.735Z,26.80
2019-05-15T14:45:33.175Z,25.90
2019-05-15T14:50:58.398Z,25.70
2019-05-15T14:56:21.139Z,25.80
2019-05-15T15:01:45.131Z,26.50
2019-05-15T15:07:08.843Z,25.70
2019-05-15T15:12:32.636Z,25.10
2019-05-15T15:17:58.329Z,25.60
2019-05-15T15:23:21.311Z,24.50
2019-05-15T15:28:44.607Z,22.70
2019-05-15T15:34:08.750Z,23.00
2019-05-15T15:39:32.893Z,24.10
2019-05-15T15:44:58.086Z,24.20
2019-05-15T15:50:21.790Z,23.10
2019-05-15T15:55:45.251Z,23.00
2019-05-15T16:01:09.176Z,23.90
2019-05-15T16:06:33.278Z,24.00
2019-05-15T16:11:58.381Z,24.10
2019-05-15T16:17:22.683Z,22.60
2019-05-15T16:22:48.614Z,23.40
2019-05-15T16:28:11.423Z,22.90
2019-05-15T16:33:35.432Z,22.00
2019-05-15T16:39:07.785Z,21.10
2019-05-15T16:44:24.529Z,21.00
2019-05-15T16:49:48.563Z,20.50
2019-05-15T16:55:12.463Z,19.70
2019-05-15T17:00:35.711Z,19.40
2019-05-15T17:05:59.781Z,20.10
2019-05-15T17:11:23.986Z,20.30
2019-05-15T17:16:48.106Z,20.50
2019-05-15T17:22:12.286Z,20.90
2019-05-15T17:27:35.511Z,19.40
2019-05-15T17:32:59.463Z,18.50
2019-05-15T17:38:22.938Z,19.70
2019-05-15T17:43:48.562Z,18.90
2019-05-15T17:49:15.478Z,18.90
2019-05-15T17:54:38.038Z,18.10
2019-05-15T18:00:02.147Z,18.90
2019-05-15T18:05:28.044Z,18.20
2019-05-15T18:10:50.656Z,18.20
2019-05-15T18:16:14.704Z,18.60
2019-05-15T18:21:38.607Z,18.80
2019-05-15T18:27:02.004Z,18.00
2019-05-15T18:43:11.712Z,18.00
2019-05-15T18:48:35.103Z,18.00
2019-05-15T18:59:25.591Z,17.70
2019-05-15T19:04:52.655Z,17.80
2019-05-15T19:10:27.964Z,17.40
2019-05-15T19:16:00.923Z,17.40
2019-05-15T19:21:27.678Z,17.40
2019-05-15T19:26:50.736Z,17.50
2019-05-15T19:32:14.792Z,17.70
2019-05-15T19:37:38.775Z,17.70
2019-05-15T19:43:04.037Z,18.60
2019-05-15T19:48:27.347Z,17.60
2019-05-15T19:53:51.087Z,17.60
2019-05-15T19:59:14.591Z,17.30
2019-05-15T20:04:38.572Z,17.30
2019-05-15T20:10:02.877Z,17.30
2019-05-15T20:15:28.562Z,17.10
2019-05-15T20:20:51.660Z,17.30
2019-05-15T20:26:17.827Z,17.00
2019-05-15T20:31:40.488Z,17.00
2019-05-15T20:37:04.357Z,16.90
2019-05-15T20:42:28.592Z,16.80
2019-05-15T20:47:51.962Z,16.80
2019-05-15T20:53:18.102Z,16.80
2019-05-15T20:58:41.106Z,16.70
2019-05-15T21:04:18.894Z,16.60
2019-05-15T21:09:31.653Z,16.60
2019-05-15T21:14:55.277Z,16.50
2019-05-15T21:20:18.762Z,16.40
2019-05-15T21:25:43.243Z,16.30
2019-05-15T21:31:08.769Z,16.20
2019-05-15T21:36:32.134Z,16.10
2019-05-15T21:41:58.167Z,15.90
2019-05-15T21:47:21.236Z,15.70
2019-05-15T21:52:44.797Z,15.40
2019-05-15T21:58:08.775Z,15.10
2019-05-15T22:03:32.815Z,15.20
2019-05-15T22:08:58.382Z,15.30
2019-05-15T22:14:22.599Z,14.60
2019-05-15T22:19:48.952Z,14.20
2019-05-15T22:25:11.595Z,14.10
2019-05-15T22:30:35.581Z,13.60
2019-05-15T22:35:59.931Z,13.70
2019-05-15T22:41:28.477Z,13.80
2019-05-15T22:46:51.876Z,14.10
2019-05-15T22:52:15.806Z,14.50
2019-05-15T22:57:39.904Z,14.30
2019-05-15T23:03:03.969Z,14.60
2019-05-15T23:08:29.045Z,14.60
2019-05-15T23:13:53.492Z,14.70
2019-05-15T23:19:18.681Z,14.00
2019-05-15T23:24:41.751Z,13.70
2019-05-15T23:30:08.703Z,13.70
2019-05-15T23:35:37.456Z,13.80
2019-05-15T23:40:58.745Z,13.80
2019-05-15T23:46:21.111Z,14.10
2019-05-15T23:51:44.751Z,14.40
2019-05-15T23:57:09.074Z,14.50
